Terminal Aerodrome Forecast
Issued by NWS Des Moines, IA

Home | Current Version | Previous Version | Text Only | Print | Product List | Glossary On
Versions: 1 2 3 4 5 6 7 8 9 10 11 12 13 14 15 16 17 18 19 20 21 22 23 24 25 26 27 28 29 30 31 32 33 34 35 36 37 38 39 40
000
FTUS43 KDMX 311346 AAA
TAFDSM
TAF AMD
KDSM 311346Z 3114/0112 18010KT P6SM SCT060 BKN110
     FM311800 19009KT 5SM -SHRA BR VCTS BKN035CB
     FM312200 24007KT P6SM SCT030 BKN100
     FM010300 VRB03KT P6SM BKN200
     FM010800 VRB02KT 4SM BR FEW250=

USA.gov is the U.S. government's official web portal to all federal, state and local government web resources and services.